sensor_id;sensor_type;location;lat;lon;timestamp;pressure;altitude;pressure_sealevel;temperature;humidity
19831;BME280;10076;52.008;4.708;2023-09-12T00:02:03;101327.44;;;22.42;100.00
19831;BME280;10076;52.008;4.708;2023-09-12T00:04:29;101321.09;;;22.35;100.00
19831;BME280;10076;52.008;4.708;2023-09-12T00:06:54;101324.59;;;22.43;100.00
19831;BME280;10076;52.008;4.708;2023-09-12T00:09:19;101328.13;;;22.20;100.00
19831;BME280;10076;52.008;4.708;2023-09-12T00:11:45;101320.72;;;22.22;100.00
19831;BME280;10076;52.008;4.708;2023-09-12T00:14:15;101332.66;;;22.20;100.00
19831;BME280;10076;52.008;4.708;2023-09-12T00:16:40;101328.28;;;22.26;100.00
19831;BME280;10076;52.008;4.708;2023-09-12T00:19:06;101327.47;;;22.34;100.00
19831;BME280;10076;52.008;4.708;2023-09-12T00:21:31;101317.34;;;22.20;100.00
19831;BME280;10076;52.008;4.708;2023-09-12T00:23:57;101318.72;;;22.08;100.00
19831;BME280;10076;52.008;4.708;2023-09-12T00:26:22;101315.88;;;22.02;100.00
19831;BME280;10076;52.008;4.708;2023-09-12T00:28:47;101311.19;;;22.04;100.00
19831;BME280;10076;52.008;4.708;2023-09-12T00:31:12;101310.28;;;22.19;100.00
19831;BME280;10076;52.008;4.708;2023-09-12T00:33:38;101312.50;;;22.08;100.00
19831;BME280;10076;52.008;4.708;2023-09-12T00:36:03;101314.69;;;22.04;100.00
19831;BME280;10076;52.008;4.708;2023-09-12T00:38:29;101309.31;;;22.12;100.00
19831;BME280;10076;52.008;4.708;2023-09-12T00:40:54;101305.59;;;22.13;100.00
19831;BME280;10076;52.008;4.708;2023-09-12T00:43:20;101306.09;;;22.17;100.00
19831;BME280;10076;52.008;4.708;2023-09-12T00:45:45;101302.56;;;22.08;100.00
19831;BME280;10076;52.008;4.708;2023-09-12T00:48:10;101305.94;;;22.02;100.00
19831;BME280;10076;52.008;4.708;2023-09-12T00:50:38;101309.31;;;21.96;100.00
19831;BME280;10076;52.008;4.708;2023-09-12T00:53:05;101307.97;;;21.92;100.00
19831;BME280;10076;52.008;4.708;2023-09-12T00:55:32;101307.97;;;21.92;100.00
19831;BME280;10076;52.008;4.708;2023-09-12T00:58:00;101302.94;;;21.89;100.00
19831;BME280;10076;52.008;4.708;2023-09-12T01:00:26;101308.81;;;21.85;100.00
19831;BME280;10076;52.008;4.708;2023-09-12T01:02:52;101306.97;;;21.85;100.00
19831;BME280;10076;52.008;4.708;2023-09-12T01:05:20;101305.63;;;21.89;100.00
19831;BME280;10076;52.008;4.708;2023-09-12T01:07:46;101304.59;;;21.90;100.00
19831;BME280;10076;52.008;4.708;2023-09-12T01:10:11;101313.72;;;21.89;100.00
19831;BME280;10076;52.008;4.708;2023-09-12T01:12:37;101308.16;;;21.75;100.00
19831;BME280;10076;52.008;4.708;2023-09-12T01:15:03;101306.63;;;21.72;100.00
19831;BME280;10076;52.008;4.708;2023-09-12T01:17:33;101299.22;;;21.66;100.00
19831;BME280;10076;52.008;4.708;2023-09-12T01:19:59;101300.94;;;21.59;100.00
19831;BME280;10076;52.008;4.708;2023-09-12T01:22:39;101300.56;;;21.62;100.00
19831;BME280;10076;52.008;4.708;2023-09-12T01:28:13;101296.03;;;21.71;100.00
19831;BME280;10076;52.008;4.708;2023-09-12T01:30:42;101290.81;;;21.61;100.00
19831;BME280;10076;52.008;4.708;2023-09-12T01:33:07;101294.72;;;21.75;100.00
19831;BME280;10076;52.008;4.708;2023-09-12T01:35:32;101294.53;;;21.68;100.00
19831;BME280;10076;52.008;4.708;2023-09-12T01:37:58;101291.69;;;21.78;100.00
19831;BME280;10076;52.008;4.708;2023-09-12T01:40:34;101298.91;;;21.77;100.00
19831;BME280;10076;52.008;4.708;2023-09-12T01:43:03;101305.31;;;21.76;100.00
19831;BME280;10076;52.008;4.708;2023-09-12T01:45:30;101295.22;;;21.70;100.00
19831;BME280;10076;52.008;4.708;2023-09-12T01:47:56;101293.53;;;21.77;100.00
19831;BME280;10076;52.008;4.708;2023-09-12T01:50:25;101297.88;;;21.78;100.00
19831;BME280;10076;52.008;4.708;2023-09-12T01:52:53;101293.53;;;21.77;100.00
19831;BME280;10076;52.008;4.708;2023-09-12T01:55:18;101290.50;;;21.72;100.00
19831;BME280;10076;52.008;4.708;2023-09-12T01:57:44;101291.50;;;21.79;100.00
19831;BME280;10076;52.008;4.708;2023-09-12T02:00:10;101301.25;;;21.80;100.00
19831;BME280;10076;52.008;4.708;2023-09-12T02:02:37;101300.09;;;21.75;100.00
19831;BME280;10076;52.008;4.708;2023-09-12T02:05:13;101300.25;;;21.89;100.00
19831;BME280;10076;52.008;4.708;2023-09-12T02:07:41;101302.25;;;21.79;100.00
19831;BME280;10076;52.008;4.708;2023-09-12T02:10:07;101307.31;;;21.82;100.00
19831;BME280;10076;52.008;4.708;2023-09-12T02:12:32;101308.66;;;21.86;100.00
19831;BME280;10076;52.008;4.708;2023-09-12T02:14:58;101297.75;;;21.80;100.00
19831;BME280;10076;52.008;4.708;2023-09-12T02:17:23;101296.38;;;21.84;100.00
19831;BME280;10076;52.008;4.708;2023-09-12T02:19:49;101299.59;;;21.87;100.00
19831;BME280;10076;52.008;4.708;2023-09-12T02:22:14;101301.59;;;21.77;100.00
19831;BME280;10076;52.008;4.708;2023-09-12T02:24:39;101296.88;;;21.79;100.00
19831;BME280;10076;52.008;4.708;2023-09-12T02:27:05;101297.88;;;21.86;100.00
19831;BME280;10076;52.008;4.708;2023-09-12T02:29:30;101309.66;;;21.69;100.00
19831;BME280;10076;52.008;4.708;2023-09-12T02:31:57;101301.91;;;21.66;100.00
19831;BME280;10076;52.008;4.708;2023-09-12T02:34:23;101297.03;;;21.70;100.00
19831;BME280;10076;52.008;4.708;2023-09-12T02:36:48;101298.72;;;21.55;100.00
19831;BME280;10076;52.008;4.708;2023-09-12T02:39:13;101297.69;;;21.48;100.00
19831;BME280;10076;52.008;4.708;2023-09-12T02:41:39;101302.88;;;21.50;100.00
19831;BME280;10076;52.008;4.708;2023-09-12T02:44:04;101302.22;;;21.48;100.00
19831;BME280;10076;52.008;4.708;2023-09-12T02:46:30;101297.69;;;21.48;100.00
19831;BME280;10076;52.008;4.708;2023-09-12T02:48:55;101296.50;;;21.43;100.00
19831;BME280;10076;52.008;4.708;2023-09-12T02:51:20;101294.16;;;21.48;100.00
19831;BME280;10076;52.008;4.708;2023-09-12T02:53:46;101291.13;;;21.43;100.00
19831;BME280;10076;52.008;4.708;2023-09-12T02:56:11;101297.50;;;21.34;100.00
19831;BME280;10076;52.008;4.708;2023-09-12T02:58:37;101300.19;;;21.42;100.00
19831;BME280;10076;52.008;4.708;2023-09-12T03:01:02;101291.81;;;21.37;100.00
19831;BME280;10076;52.008;4.708;2023-09-12T03:03:30;101291.13;;;21.35;100.00
19831;BME280;10076;52.008;4.708;2023-09-12T03:06:01;101284.06;;;21.42;100.00
19831;BME280;10076;52.008;4.708;2023-09-12T03:08:29;101285.94;;;21.49;100.00
19831;BME280;10076;52.008;4.708;2023-09-12T03:10:56;101281.44;;;21.65;100.00
19831;BME280;10076;52.008;4.708;2023-09-12T03:13:24;101279.09;;;21.55;100.00
19831;BME280;10076;52.008;4.708;2023-09-12T03:15:49;101285.22;;;21.31;100.00
19831;BME280;10076;52.008;4.708;2023-09-12T03:18:15;101287.75;;;21.41;100.00
19831;BME280;10076;52.008;4.708;2023-09-12T03:20:40;101281.56;;;21.40;100.00
19831;BME280;10076;52.008;4.708;2023-09-12T03:23:06;101277.69;;;21.43;100.00
19831;BME280;10076;52.008;4.708;2023-09-12T03:25:35;101280.38;;;21.35;100.00
19831;BME280;10076;52.008;4.708;2023-09-12T03:28:01;101277.50;;;21.36;100.00
19831;BME280;10076;52.008;4.708;2023-09-12T03:30:27;101277.34;;;21.38;100.00
19831;BME280;10076;52.008;4.708;2023-09-12T03:32:52;101285.75;;;21.43;100.00
19831;BME280;10076;52.008;4.708;2023-09-12T03:35:18;101284.72;;;21.28;100.00
19831;BME280;10076;52.008;4.708;2023-09-12T03:37:43;101283.53;;;21.30;100.00
19831;BME280;10076;52.008;4.708;2023-09-12T03:40:09;101284.06;;;21.34;100.00
19831;BME280;10076;52.008;4.708;2023-09-12T03:42:35;101281.56;;;21.48;100.00
19831;BME280;10076;52.008;4.708;2023-09-12T03:45:00;101288.97;;;21.54;100.00
19831;BME280;10076;52.008;4.708;2023-09-12T03:47:26;101291.50;;;21.63;100.00
19831;BME280;10076;52.008;4.708;2023-09-12T03:49:51;101288.66;;;21.65;100.00
19831;BME280;10076;52.008;4.708;2023-09-12T03:52:16;101287.06;;;21.39;100.00
19831;BME280;10076;52.008;4.708;2023-09-12T03:54:41;101292.13;;;21.26;100.00
19831;BME280;10076;52.008;4.708;2023-09-12T03:57:07;101282.19;;;21.26;100.00
19831;BME280;10076;52.008;4.708;2023-09-12T03:59:32;101278.19;;;21.38;100.00
19831;BME280;10076;52.008;4.708;2023-09-12T04:01:58;101283.56;;;21.38;100.00
19831;BME280;10076;52.008;4.708;2023-09-12T04:04:23;101290.09;;;21.28;100.00
19831;BME280;10076;52.008;4.708;2023-09-12T04:06:48;101293.47;;;21.46;100.00
19831;BME280;10076;52.008;4.708;2023-09-12T04:09:14;101285.41;;;21.46;100.00
19831;BME280;10076;52.008;4.708;2023-09-12T04:11:39;101291.50;;;21.55;100.00
19831;BME280;10076;52.008;4.708;2023-09-12T04:14:04;101290.31;;;21.50;100.00
19831;BME280;10076;52.008;4.708;2023-09-12T04:16:30;101283.72;;;21.45;100.00
19831;BME280;10076;52.008;4.708;2023-09-12T04:18:55;101288.09;;;21.30;100.00
19831;BME280;10076;52.008;4.708;2023-09-12T04:21:20;101293.44;;;21.38;100.00
19831;BME280;10076;52.008;4.708;2023-09-12T04:23:45;101291.13;;;21.43;100.00
19831;BME280;10076;52.008;4.708;2023-09-12T04:26:11;101293.88;;;21.58;100.00
19831;BME280;10076;52.008;4.708;2023-09-12T04:28:36;101294.19;;;21.55;100.00
19831;BME280;10076;52.008;4.708;2023-09-12T04:31:02;101289.28;;;21.43;100.00
19831;BME280;10076;52.008;4.708;2023-09-12T04:33:28;101290.66;;;21.55;100.00
19831;BME280;10076;52.008;4.708;2023-09-12T04:35:53;101285.97;;;21.65;100.00
19831;BME280;10076;52.008;4.708;2023-09-12T04:38:19;101290.50;;;21.72;100.00
19831;BME280;10076;52.008;4.708;2023-09-12T04:40:53;101292.84;;;21.67;100.00
19831;BME280;10076;52.008;4.708;2023-09-12T04:43:19;101292.19;;;21.73;100.00
19831;BME280;10076;52.008;4.708;2023-09-12T04:45:44;101284.47;;;21.70;100.00
19831;BME280;10076;52.008;4.708;2023-09-12T04:48:09;101288.81;;;21.55;100.00
19831;BME280;10076;52.008;4.708;2023-09-12T04:50:40;101289.31;;;21.67;100.00
19831;BME280;10076;52.008;4.708;2023-09-12T04:53:06;101287.31;;;21.69;100.00
19831;BME280;10076;52.008;4.708;2023-09-12T04:55:31;101292.81;;;21.52;100.00
19831;BME280;10076;52.008;4.708;2023-09-12T04:57:56;101290.00;;;21.61;100.00
19831;BME280;10076;52.008;4.708;2023-09-12T05:00:22;101290.50;;;21.64;100.00
19831;BME280;10076;52.008;4.708;2023-09-12T05:02:47;101290.00;;;21.69;100.00
19831;BME280;10076;52.008;4.708;2023-09-12T05:05:12;101283.97;;;21.75;100.00
19831;BME280;10076;52.008;4.708;2023-09-12T05:07:38;101287.81;;;21.64;100.00
19831;BME280;10076;52.008;4.708;2023-09-12T05:10:03;101287.31;;;21.69;100.00
19831;BME280;10076;52.008;4.708;2023-09-12T05:12:29;101294.19;;;21.63;100.00
19831;BME280;10076;52.008;4.708;2023-09-12T05:14:54;101303.94;;;21.64;100.00
19831;BME280;10076;52.008;4.708;2023-09-12T05:17:19;101300.09;;;21.75;100.00
19831;BME280;10076;52.008;4.708;2023-09-12T05:19:45;101288.13;;;22.09;100.00
19831;BME280;10076;52.008;4.708;2023-09-12T05:22:10;101283.94;;;21.83;100.00
19831;BME280;10076;52.008;4.708;2023-09-12T05:24:35;101281.09;;;21.76;100.00
19831;BME280;10076;52.008;4.708;2023-09-12T05:27:01;101294.88;;;21.65;100.00
19831;BME280;10076;52.008;4.708;2023-09-12T05:29:26;101292.34;;;21.72;100.00
19831;BME280;10076;52.008;4.708;2023-09-12T05:31:51;101302.25;;;21.63;100.00
19831;BME280;10076;52.008;4.708;2023-09-12T05:34:17;101299.25;;;21.74;100.00
19831;BME280;10076;52.008;4.708;2023-09-12T05:36:42;101294.72;;;21.91;100.00
19831;BME280;10076;52.008;4.708;2023-09-12T05:39:07;101300.22;;;21.97;100.00
19831;BME280;10076;52.008;4.708;2023-09-12T05:41:34;101310.31;;;22.03;100.00
19831;BME280;10076;52.008;4.708;2023-09-12T05:43:59;101306.78;;;21.95;100.00
19831;BME280;10076;52.008;4.708;2023-09-12T05:46:25;101303.59;;;21.99;100.00
19831;BME280;10076;52.008;4.708;2023-09-12T05:48:50;101305.25;;;22.16;100.00
19831;BME280;10076;52.008;4.708;2023-09-12T05:51:15;101303.06;;;22.20;100.00
19831;BME280;10076;52.008;4.708;2023-09-12T05:53:40;101311.31;;;22.10;100.00
19831;BME280;10076;52.008;4.708;2023-09-12T05:56:06;101306.28;;;22.15;100.00
19831;BME280;10076;52.008;4.708;2023-09-12T05:58:31;101305.41;;;22.23;100.00
19831;BME280;10076;52.008;4.708;2023-09-12T06:00:56;101309.47;;;22.26;100.00
19831;BME280;10076;52.008;4.708;2023-09-12T06:03:22;101310.94;;;22.45;100.00
19831;BME280;10076;52.008;4.708;2023-09-12T06:05:47;101316.66;;;22.42;100.00
19831;BME280;10076;52.008;4.708;2023-09-12T06:08:13;101314.84;;;22.34;100.00
19831;BME280;10076;52.008;4.708;2023-09-12T06:10:38;101312.16;;;22.34;100.00
19831;BME280;10076;52.008;4.708;2023-09-12T06:13:03;101318.72;;;22.40;100.00
19831;BME280;10076;52.008;4.708;2023-09-12T06:15:29;101315.66;;;22.43;100.00
19831;BME280;10076;52.008;4.708;2023-09-12T06:17:54;101319.47;;;22.56;100.00
19831;BME280;10076;52.008;4.708;2023-09-12T06:20:20;101312.44;;;22.55;100.00
19831;BME280;10076;52.008;4.708;2023-09-12T06:22:45;101325.56;;;22.50;100.00
19831;BME280;10076;52.008;4.708;2023-09-12T06:25:11;101328.25;;;22.50;100.00
19831;BME280;10076;52.008;4.708;2023-09-12T06:27:36;101323.84;;;22.57;100.00
19831;BME280;10076;52.008;4.708;2023-09-12T06:30:01;101323.47;;;22.68;100.00
19831;BME280;10076;52.008;4.708;2023-09-12T06:32:27;101322.34;;;22.55;100.00
19831;BME280;10076;52.008;4.708;2023-09-12T06:34:52;101328.44;;;22.49;100.00
19831;BME280;10076;52.008;4.708;2023-09-12T06:37:18;101336.19;;;22.36;100.00
19831;BME280;10076;52.008;4.708;2023-09-12T06:39:43;101340.38;;;22.54;100.00
19831;BME280;10076;52.008;4.708;2023-09-12T06:42:09;101341.38;;;22.61;100.00
19831;BME280;10076;52.008;4.708;2023-09-12T06:44:34;101332.09;;;22.64;100.00
19831;BME280;10076;52.008;4.708;2023-09-12T06:47:00;101338.88;;;22.52;100.00
19831;BME280;10076;52.008;4.708;2023-09-12T06:49:25;101332.59;;;22.67;100.00
19831;BME280;10076;52.008;4.708;2023-09-12T06:51:50;101334.47;;;22.97;100.00
19831;BME280;10076;52.008;4.708;2023-09-12T06:54:16;101329.97;;;22.90;100.00
19831;BME280;10076;52.008;4.708;2023-09-12T06:56:41;101333.16;;;23.01;100.00
19831;BME280;10076;52.008;4.708;2023-09-12T06:59:08;101338.66;;;22.99;100.00
19831;BME280;10076;52.008;4.708;2023-09-12T07:01:33;101335.66;;;23.10;100.00
19831;BME280;10076;52.008;4.708;2023-09-12T07:03:59;101340.97;;;23.18;100.00
19831;BME280;10076;52.008;4.708;2023-09-12T07:06:24;101332.59;;;23.13;100.00
19831;BME280;10076;52.008;4.708;2023-09-12T07:08:50;101331.06;;;23.19;100.00
19831;BME280;10076;52.008;4.708;2023-09-12T07:11:16;101324.28;;;23.23;100.00
19831;BME280;10076;52.008;4.708;2023-09-12T07:13:41;101335.88;;;23.23;100.00
19831;BME280;10076;52.008;4.708;2023-09-12T07:16:07;101334.06;;;23.46;100.00
19831;BME280;10076;52.008;4.708;2023-09-12T07:18:32;101335.41;;;23.20;100.00
19831;BME280;10076;52.008;4.708;2023-09-12T07:21:02;101333.78;;;23.11;100.00
19831;BME280;10076;52.008;4.708;2023-09-12T07:23:28;101327.22;;;23.05;100.00
19831;BME280;10076;52.008;4.708;2023-09-12T07:25:55;101331.47;;;23.30;100.00
19831;BME280;10076;52.008;4.708;2023-09-12T07:28:23;101319.81;;;23.38;100.00
19831;BME280;10076;52.008;4.708;2023-09-12T07:30:48;101328.38;;;23.41;100.00
19831;BME280;10076;52.008;4.708;2023-09-12T07:33:14;101331.47;;;23.30;100.00
19831;BME280;10076;52.008;4.708;2023-09-12T07:35:39;101331.28;;;23.32;100.00
19831;BME280;10076;52.008;4.708;2023-09-12T07:38:04;101339.91;;;23.58;100.00
19831;BME280;10076;52.008;4.708;2023-09-12T07:40:30;101346.06;;;23.44;100.00
19831;BME280;10076;52.008;4.708;2023-09-12T07:42:55;101352.13;;;23.68;100.00
19831;BME280;10076;52.008;4.708;2023-09-12T07:45:20;101352.03;;;23.84;100.00
19831;BME280;10076;52.008;4.708;2023-09-12T07:47:46;101352.56;;;24.02;100.00
19831;BME280;10076;52.008;4.708;2023-09-12T07:50:11;101348.53;;;24.20;100.00
19831;BME280;10076;52.008;4.708;2023-09-12T07:52:37;101348.44;;;24.14;100.00
19831;BME280;10076;52.008;4.708;2023-09-12T07:55:03;101357.31;;;24.00;100.00
19831;BME280;10076;52.008;4.708;2023-09-12T07:57:29;101357.59;;;24.05;100.00
19831;BME280;10076;52.008;4.708;2023-09-12T07:59:56;101359.69;;;24.17;100.00
19831;BME280;10076;52.008;4.708;2023-09-12T08:02:21;101360.13;;;24.21;100.00
19831;BME280;10076;52.008;4.708;2023-09-12T08:04:46;101360.13;;;24.43;100.00
19831;BME280;10076;52.008;4.708;2023-09-12T08:07:12;101364.06;;;24.69;100.00
19831;BME280;10076;52.008;4.708;2023-09-12T08:09:52;101365.22;;;24.89;100.00
19831;BME280;10076;52.008;4.708;2023-09-12T08:12:19;101360.56;;;25.12;100.00
19831;BME280;10076;52.008;4.708;2023-09-12T08:14:44;101359.03;;;25.24;100.00
19831;BME280;10076;52.008;4.708;2023-09-12T08:17:11;101366.41;;;25.30;100.00
19831;BME280;10076;52.008;4.708;2023-09-12T08:19:36;101363.47;;;25.46;100.00
19831;BME280;10076;52.008;4.708;2023-09-12T08:22:02;101368.44;;;25.28;100.00
19831;BME280;10076;52.008;4.708;2023-09-12T08:24:27;101370.19;;;25.35;100.00
19831;BME280;10076;52.008;4.708;2023-09-12T08:26:52;101368.34;;;25.36;100.00
19831;BME280;10076;52.008;4.708;2023-09-12T08:29:18;101369.00;;;25.23;100.00
19831;BME280;10076;52.008;4.708;2023-09-12T08:31:43;101372.69;;;25.37;100.00
19831;BME280;10076;52.008;4.708;2023-09-12T08:34:10;101378.88;;;25.31;100.00
19831;BME280;10076;52.008;4.708;2023-09-12T08:36:35;101366.94;;;25.40;100.00
19831;BME280;10076;52.008;4.708;2023-09-12T08:39:01;101367.16;;;25.59;100.00
19831;BME280;10076;52.008;4.708;2023-09-12T08:41:26;101370.34;;;25.83;100.00
19831;BME280;10076;52.008;4.708;2023-09-12T08:43:51;101371.75;;;26.42;100.00
19831;BME280;10076;52.008;4.708;2023-09-12T08:46:18;101374.19;;;26.92;100.00
19831;BME280;10076;52.008;4.708;2023-09-12T08:48:45;101371.09;;;27.48;100.00
19831;BME280;10076;52.008;4.708;2023-09-12T08:51:11;101364.50;;;27.63;100.00
19831;BME280;10076;52.008;4.708;2023-09-12T08:53:37;101366.25;;;27.90;100.00
19831;BME280;10076;52.008;4.708;2023-09-12T08:56:04;101364.19;;;28.24;100.00
19831;BME280;10076;52.008;4.708;2023-09-12T08:58:32;101375.47;;;28.41;100.00
19831;BME280;10076;52.008;4.708;2023-09-12T09:00:57;101375.03;;;28.44;100.00
19831;BME280;10076;52.008;4.708;2023-09-12T09:03:24;101363.13;;;28.58;100.00
19831;BME280;10076;52.008;4.708;2023-09-12T09:05:51;101370.03;;;28.54;100.00
19831;BME280;10076;52.008;4.708;2023-09-12T09:08:18;101369.38;;;28.58;100.00
19831;BME280;10076;52.008;4.708;2023-09-12T09:10:58;101370.13;;;29.04;100.00
19831;BME280;10076;52.008;4.708;2023-09-12T09:13:24;101373.94;;;29.53;100.00
19831;BME280;10076;52.008;4.708;2023-09-12T09:16:09;101372.41;;;30.56;100.00
19831;BME280;10076;52.008;4.708;2023-09-12T09:18:58;101380.00;;;30.72;100.00
19831;BME280;10076;52.008;4.708;2023-09-12T09:21:27;101379.47;;;30.08;100.00
19831;BME280;10076;52.008;4.708;2023-09-12T09:23:54;101383.78;;;29.91;100.00
19831;BME280;10076;52.008;4.708;2023-09-12T09:26:20;101385.84;;;30.26;100.00
19831;BME280;10076;52.008;4.708;2023-09-12T09:28:45;101382.56;;;30.42;100.00
19831;BME280;10076;52.008;4.708;2023-09-12T09:31:25;101399.19;;;30.34;100.00
19831;BME280;10076;52.008;4.708;2023-09-12T09:33:50;101393.34;;;30.31;100.00
19831;BME280;10076;52.008;4.708;2023-09-12T09:36:17;101386.66;;;30.58;100.00
19831;BME280;10076;52.008;4.708;2023-09-12T09:38:43;101391.81;;;31.08;100.00
19831;BME280;10076;52.008;4.708;2023-09-12T09:41:08;101407.97;;;32.33;100.00
19831;BME280;10076;52.008;4.708;2023-09-12T09:43:35;101391.41;;;31.58;100.00
19831;BME280;10076;52.008;4.708;2023-09-12T09:46:00;101395.22;;;31.21;100.00
19831;BME280;10076;52.008;4.708;2023-09-12T09:48:26;101394.00;;;30.75;100.00
19831;BME280;10076;52.008;4.708;2023-09-12T09:51:01;101396.94;;;30.56;100.00
19831;BME280;10076;52.008;4.708;2023-09-12T09:53:28;101402.34;;;31.87;100.00
19831;BME280;10076;52.008;4.708;2023-09-12T09:56:26;101408.09;;;32.49;100.00
19831;BME280;10076;52.008;4.708;2023-09-12T09:58:55;101414.88;;;33.38;100.00
19831;BME280;10076;52.008;4.708;2023-09-12T10:01:23;101418.38;;;32.88;100.00
19831;BME280;10076;52.008;4.708;2023-09-12T10:03:52;101409.38;;;31.65;100.00
19831;BME280;10076;52.008;4.708;2023-09-12T10:06:19;101404.22;;;30.62;100.00
19831;BME280;10076;52.008;4.708;2023-09-12T10:08:45;101390.94;;;29.86;100.00
19831;BME280;10076;52.008;4.708;2023-09-12T10:11:14;101393.97;;;29.65;100.00
19831;BME280;10076;52.008;4.708;2023-09-12T10:13:46;101400.00;;;29.80;100.00
19831;BME280;10076;52.008;4.708;2023-09-12T10:16:15;101398.78;;;29.69;100.00
19831;BME280;10076;52.008;4.708;2023-09-12T10:18:56;101380.25;;;29.84;100.00
19831;BME280;10076;52.008;4.708;2023-09-12T10:21:29;101394.00;;;31.53;100.00
19831;BME280;10076;52.008;4.708;2023-09-12T10:23:56;101400.41;;;33.03;100.00
19831;BME280;10076;52.008;4.708;2023-09-12T10:26:23;101399.47;;;34.48;100.00
19831;BME280;10076;52.008;4.708;2023-09-12T10:28:50;101394.69;;;34.93;100.00
19831;BME280;10076;52.008;4.708;2023-09-12T10:31:16;101398.44;;;36.83;100.00
19831;BME280;10076;52.008;4.708;2023-09-12T10:33:43;101399.34;;;36.57;100.00
19831;BME280;10076;52.008;4.708;2023-09-12T10:36:11;101392.22;;;35.51;100.00
19831;BME280;10076;52.008;4.708;2023-09-12T10:38:48;101386.41;;;34.55;100.00
19831;BME280;10076;52.008;4.708;2023-09-12T10:41:15;101384.91;;;34.15;100.00
19831;BME280;10076;52.008;4.708;2023-09-12T10:43:42;101391.44;;;35.34;100.00
19831;BME280;10076;52.008;4.708;2023-09-12T10:46:08;101383.75;;;36.36;100.00
19831;BME280;10076;52.008;4.708;2023-09-12T10:48:35;101383.50;;;37.91;100.00
19831;BME280;10076;52.008;4.708;2023-09-12T10:51:01;101381.13;;;39.52;100.00
19831;BME280;10076;52.008;4.708;2023-09-12T10:53:30;101392.47;;;40.70;87.24
19831;BME280;10076;52.008;4.708;2023-09-12T10:56:16;101377.03;;;41.58;81.31
19831;BME280;10076;52.008;4.708;2023-09-12T11:01:30;101375.53;;;41.83;72.29
19831;BME280;10076;52.008;4.708;2023-09-12T11:03:55;101372.91;;;41.73;71.67
19831;BME280;10076;52.008;4.708;2023-09-12T11:06:31;101365.94;;;42.13;70.71
19831;BME280;10076;52.008;4.708;2023-09-12T11:11:48;101370.28;;;44.64;61.08
19831;BME280;10076;52.008;4.708;2023-09-12T11:14:15;101376.03;;;44.67;57.58
19831;BME280;10076;52.008;4.708;2023-09-12T11:16:41;101373.06;;;44.20;58.54
19831;BME280;10076;52.008;4.708;2023-09-12T11:19:20;101366.47;;;42.92;60.27
19831;BME280;10076;52.008;4.708;2023-09-12T11:21:53;101361.03;;;42.55;62.08
19831;BME280;10076;52.008;4.708;2023-09-12T11:24:20;101363.81;;;41.50;62.87
19831;BME280;10076;52.008;4.708;2023-09-12T11:27:02;101364.56;;;41.13;64.59
19831;BME280;10076;52.008;4.708;2023-09-12T11:29:39;101370.75;;;41.71;65.04
19831;BME280;10076;52.008;4.708;2023-09-12T11:32:06;101372.09;;;41.91;63.93
19831;BME280;10076;52.008;4.708;2023-09-12T11:34:42;101384.03;;;41.92;63.77
19831;BME280;10076;52.008;4.708;2023-09-12T11:37:08;101370.44;;;41.07;63.48
19831;BME280;10076;52.008;4.708;2023-09-12T11:39:36;101369.13;;;40.10;67.42
19831;BME280;10076;52.008;4.708;2023-09-12T11:42:03;101367.31;;;39.42;72.05
19831;BME280;10076;52.008;4.708;2023-09-12T11:44:29;101364.16;;;38.95;71.60
19831;BME280;10076;52.008;4.708;2023-09-12T11:46:57;101358.59;;;37.61;79.22
19831;BME280;10076;52.008;4.708;2023-09-12T11:49:35;101355.94;;;37.15;85.51
19831;BME280;10076;52.008;4.708;2023-09-12T11:52:00;101364.28;;;36.43;88.05
19831;BME280;10076;52.008;4.708;2023-09-12T11:54:26;101367.91;;;35.43;95.78
19831;BME280;10076;52.008;4.708;2023-09-12T11:56:53;101369.03;;;34.66;100.00
19831;BME280;10076;52.008;4.708;2023-09-12T11:59:31;101370.66;;;33.74;100.00
19831;BME280;10076;52.008;4.708;2023-09-12T12:01:56;101375.03;;;33.19;100.00
19831;BME280;10076;52.008;4.708;2023-09-12T12:04:23;101373.16;;;32.86;100.00
19831;BME280;10076;52.008;4.708;2023-09-12T12:06:51;101379.44;;;32.29;100.00
19831;BME280;10076;52.008;4.708;2023-09-12T12:09:17;101379.59;;;31.75;100.00
19831;BME280;10076;52.008;4.708;2023-09-12T12:11:46;101375.75;;;31.18;100.00
19831;BME280;10076;52.008;4.708;2023-09-12T12:14:13;101375.97;;;30.74;100.00
19831;BME280;10076;52.008;4.708;2023-09-12T12:16:40;101371.66;;;30.42;100.00
19831;BME280;10076;52.008;4.708;2023-09-12T12:19:05;101386.75;;;30.20;100.00
19831;BME280;10076;52.008;4.708;2023-09-12T12:21:31;101367.31;;;29.80;100.00
19831;BME280;10076;52.008;4.708;2023-09-12T12:23:58;101357.59;;;29.59;100.00
19831;BME280;10076;52.008;4.708;2023-09-12T12:26:24;101360.94;;;29.55;100.00
19831;BME280;10076;52.008;4.708;2023-09-12T12:28:50;101351.78;;;29.80;100.00
19831;BME280;10076;52.008;4.708;2023-09-12T12:31:16;101342.13;;;30.15;100.00
19831;BME280;10076;52.008;4.708;2023-09-12T12:33:47;101346.66;;;30.70;100.00
19831;BME280;10076;52.008;4.708;2023-09-12T12:36:13;101353.44;;;31.21;100.00
19831;BME280;10076;52.008;4.708;2023-09-12T12:38:38;101347.78;;;32.10;100.00
19831;BME280;10076;52.008;4.708;2023-09-12T12:41:09;101341.59;;;32.95;100.00
19831;BME280;10076;52.008;4.708;2023-09-12T12:43:35;101338.53;;;33.42;100.00
19831;BME280;10076;52.008;4.708;2023-09-12T12:46:01;101348.84;;;34.07;100.00
19831;BME280;10076;52.008;4.708;2023-09-12T12:48:33;101340.34;;;34.74;100.00